sensor_id;sensor_type;location;lat;lon;timestamp;pressure;altitude;pressure_sealevel;temperature;humidity
15529;BME280;7866;52.280;9.500;2023-10-09T00:05:00;100741.53;;;13.45;85.32
15529;BME280;7866;52.280;9.500;2023-10-09T00:10:03;100725.97;;;13.33;85.23
15529;BME280;7866;52.280;9.500;2023-10-09T00:15:13;100690.75;;;13.42;85.09
15529;BME280;7866;52.280;9.500;2023-10-09T00:20:19;100683.78;;;13.33;84.27
15529;BME280;7866;52.280;9.500;2023-10-09T00:25:25;100660.88;;;13.37;84.67
15529;BME280;7866;52.280;9.500;2023-10-09T00:30:30;100683.88;;;13.40;84.61
15529;BME280;7866;52.280;9.500;2023-10-09T00:35:36;100672.81;;;13.35;84.72
15529;BME280;7866;52.280;9.500;2023-10-09T00:40:42;100652.00;;;13.51;84.88
15529;BME280;7866;52.280;9.500;2023-10-09T00:45:47;100640.28;;;13.44;84.76
15529;BME280;7866;52.280;9.500;2023-10-09T00:50:52;100629.09;;;13.55;85.39
15529;BME280;7866;52.280;9.500;2023-10-09T00:55:54;100609.13;;;13.73;85.03
15529;BME280;7866;52.280;9.500;2023-10-09T01:00:57;100597.03;;;13.84;84.87
15529;BME280;7866;52.280;9.500;2023-10-09T01:06:02;100596.78;;;13.93;84.96
15529;BME280;7866;52.280;9.500;2023-10-09T01:11:17;100638.75;;;14.02;84.69
15529;BME280;7866;52.280;9.500;2023-10-09T01:16:22;100644.63;;;14.06;84.14
15529;BME280;7866;52.280;9.500;2023-10-09T01:21:25;100649.53;;;14.02;84.71
15529;BME280;7866;52.280;9.500;2023-10-09T01:26:29;100656.03;;;14.08;84.43
15529;BME280;7866;52.280;9.500;2023-10-09T01:31:34;100646.09;;;13.94;84.91
15529;BME280;7866;52.280;9.500;2023-10-09T01:36:38;100630.41;;;13.97;85.52
15529;BME280;7866;52.280;9.500;2023-10-09T01:41:43;100607.19;;;13.96;86.08
15529;BME280;7866;52.280;9.500;2023-10-09T01:46:47;100592.97;;;14.02;86.38
15529;BME280;7866;52.280;9.500;2023-10-09T01:51:49;100572.38;;;14.10;86.23
15529;BME280;7866;52.280;9.500;2023-10-09T01:56:52;100566.88;;;14.18;86.48
15529;BME280;7866;52.280;9.500;2023-10-09T02:01:56;100560.47;;;14.19;86.79
15529;BME280;7866;52.280;9.500;2023-10-09T02:07:00;100570.31;;;14.26;86.79
15529;BME280;7866;52.280;9.500;2023-10-09T02:12:08;100561.50;;;14.18;86.93
15529;BME280;7866;52.280;9.500;2023-10-09T02:17:09;100534.81;;;14.08;87.80
15529;BME280;7866;52.280;9.500;2023-10-09T02:22:18;100519.91;;;14.05;88.06
15529;BME280;7866;52.280;9.500;2023-10-09T02:27:21;100513.84;;;14.03;88.42
15529;BME280;7866;52.280;9.500;2023-10-09T02:32:50;100514.41;;;14.14;89.35
15529;BME280;7866;52.280;9.500;2023-10-09T02:37:52;100497.81;;;14.32;90.32
15529;BME280;7866;52.280;9.500;2023-10-09T02:42:54;100487.78;;;14.40;91.17
15529;BME280;7866;52.280;9.500;2023-10-09T02:47:57;100483.59;;;14.38;91.71
15529;BME280;7866;52.280;9.500;2023-10-09T02:53:00;100488.78;;;14.39;91.79
15529;BME280;7866;52.280;9.500;2023-10-09T02:58:09;100487.13;;;14.38;91.98
15529;BME280;7866;52.280;9.500;2023-10-09T03:03:21;100480.72;;;14.39;91.88
15529;BME280;7866;52.280;9.500;2023-10-09T03:08:23;100473.09;;;14.43;92.29
15529;BME280;7866;52.280;9.500;2023-10-09T03:13:25;100468.63;;;14.50;93.45
15529;BME280;7866;52.280;9.500;2023-10-09T03:18:31;100457.38;;;14.46;92.95
15529;BME280;7866;52.280;9.500;2023-10-09T03:23:33;100457.84;;;14.50;92.35
15529;BME280;7866;52.280;9.500;2023-10-09T03:28:34;100419.91;;;14.51;92.42
15529;BME280;7866;52.280;9.500;2023-10-09T03:33:37;100412.38;;;14.47;93.98
15529;BME280;7866;52.280;9.500;2023-10-09T03:38:39;100413.06;;;14.49;93.33
15529;BME280;7866;52.280;9.500;2023-10-09T03:43:41;100418.91;;;14.52;92.60
15529;BME280;7866;52.280;9.500;2023-10-09T03:48:44;100410.03;;;14.59;93.53
15529;BME280;7866;52.280;9.500;2023-10-09T03:53:47;100398.75;;;14.70;93.97
15529;BME280;7866;52.280;9.500;2023-10-09T03:58:49;100395.25;;;14.76;93.96
15529;BME280;7866;52.280;9.500;2023-10-09T04:03:53;100404.22;;;14.83;94.21
15529;BME280;7866;52.280;9.500;2023-10-09T04:08:55;100409.69;;;14.90;93.91
15529;BME280;7866;52.280;9.500;2023-10-09T04:13:58;100422.44;;;15.02;94.40
15529;BME280;7866;52.280;9.500;2023-10-09T04:19:11;100418.97;;;15.09;93.67
15529;BME280;7866;52.280;9.500;2023-10-09T04:24:13;100428.06;;;15.08;94.30
15529;BME280;7866;52.280;9.500;2023-10-09T04:29:24;100435.78;;;15.11;95.09
15529;BME280;7866;52.280;9.500;2023-10-09T04:34:30;100449.25;;;15.11;94.88
15529;BME280;7866;52.280;9.500;2023-10-09T04:39:36;100447.59;;;15.10;94.61
15529;BME280;7866;52.280;9.500;2023-10-09T04:44:47;100449.25;;;15.11;94.65
15529;BME280;7866;52.280;9.500;2023-10-09T04:50:09;100454.88;;;15.09;95.22
15529;BME280;7866;52.280;9.500;2023-10-09T04:55:11;100450.88;;;15.05;95.53
15529;BME280;7866;52.280;9.500;2023-10-09T05:00:20;100429.25;;;14.98;96.19
15529;BME280;7866;52.280;9.500;2023-10-09T05:05:45;100450.44;;;15.01;96.06
15529;BME280;7866;52.280;9.500;2023-10-09T05:10:59;100448.38;;;15.03;95.76
15529;BME280;7866;52.280;9.500;2023-10-09T05:16:17;100460.56;;;14.99;95.52
15529;BME280;7866;52.280;9.500;2023-10-09T05:21:24;100479.66;;;14.98;95.38
15529;BME280;7866;52.280;9.500;2023-10-09T05:26:42;100471.13;;;14.94;95.68
15529;BME280;7866;52.280;9.500;2023-10-09T05:31:52;100466.53;;;14.88;96.23
15529;BME280;7866;52.280;9.500;2023-10-09T05:37:06;100461.50;;;14.85;96.67
15529;BME280;7866;52.280;9.500;2023-10-09T05:42:22;100446.75;;;14.81;96.24
15529;BME280;7866;52.280;9.500;2023-10-09T05:47:29;100445.72;;;14.82;97.24
15529;BME280;7866;52.280;9.500;2023-10-09T05:52:36;100437.41;;;14.84;97.50
15529;BME280;7866;52.280;9.500;2023-10-09T05:57:56;100518.50;;;14.82;97.77
15529;BME280;7866;52.280;9.500;2023-10-09T06:03:15;100462.78;;;14.89;98.22
15529;BME280;7866;52.280;9.500;2023-10-09T06:08:27;100490.34;;;14.85;98.15
15529;BME280;7866;52.280;9.500;2023-10-09T06:13:49;100497.19;;;14.87;98.73
15529;BME280;7866;52.280;9.500;2023-10-09T06:19:03;100459.19;;;14.82;98.70
15529;BME280;7866;52.280;9.500;2023-10-09T06:24:13;100470.19;;;14.81;99.19
15529;BME280;7866;52.280;9.500;2023-10-09T06:29:18;100477.25;;;14.82;98.68
15529;BME280;7866;52.280;9.500;2023-10-09T06:34:35;100467.28;;;14.82;99.36
15529;BME280;7866;52.280;9.500;2023-10-09T06:39:46;100490.91;;;14.80;98.88
15529;BME280;7866;52.280;9.500;2023-10-09T06:45:09;100496.75;;;14.84;97.73
15529;BME280;7866;52.280;9.500;2023-10-09T06:50:15;100477.09;;;14.90;98.98
15529;BME280;7866;52.280;9.500;2023-10-09T06:55:27;100475.03;;;14.92;99.06
15529;BME280;7866;52.280;9.500;2023-10-09T07:00:38;100496.88;;;14.97;99.42
15529;BME280;7866;52.280;9.500;2023-10-09T07:06:04;100483.19;;;14.98;98.75
15529;BME280;7866;52.280;9.500;2023-10-09T07:11:11;100470.34;;;15.00;98.71
15529;BME280;7866;52.280;9.500;2023-10-09T07:16:38;100466.88;;;15.07;98.68
15529;BME280;7866;52.280;9.500;2023-10-09T07:21:57;100463.34;;;15.06;98.76
15529;BME280;7866;52.280;9.500;2023-10-09T07:27:05;100454.66;;;15.11;98.58
15529;BME280;7866;52.280;9.500;2023-10-09T07:32:10;100440.13;;;15.12;100.00
15529;BME280;7866;52.280;9.500;2023-10-09T07:37:20;100443.88;;;15.11;100.00
15529;BME280;7866;52.280;9.500;2023-10-09T07:42:25;100438.47;;;15.11;100.00
15529;BME280;7866;52.280;9.500;2023-10-09T07:47:45;100436.22;;;15.14;100.00
15529;BME280;7866;52.280;9.500;2023-10-09T07:53:01;100432.03;;;15.12;100.00
15529;BME280;7866;52.280;9.500;2023-10-09T07:58:20;100424.59;;;15.14;100.00
15529;BME280;7866;52.280;9.500;2023-10-09T08:03:25;100414.44;;;15.16;100.00
15529;BME280;7866;52.280;9.500;2023-10-09T08:08:33;100425.88;;;15.18;100.00
15529;BME280;7866;52.280;9.500;2023-10-09T08:13:57;100421.34;;;15.25;100.00
15529;BME280;7866;52.280;9.500;2023-10-09T08:19:01;100423.66;;;15.28;100.00
15529;BME280;7866;52.280;9.500;2023-10-09T08:24:20;100426.78;;;15.32;100.00
15529;BME280;7866;52.280;9.500;2023-10-09T08:29:49;100426.00;;;15.38;100.00
15529;BME280;7866;52.280;9.500;2023-10-09T08:35:11;100414.59;;;15.42;100.00
15529;BME280;7866;52.280;9.500;2023-10-09T08:40:31;100427.16;;;15.57;100.00
15529;BME280;7866;52.280;9.500;2023-10-09T08:45:36;100429.72;;;15.65;100.00
15529;BME280;7866;52.280;9.500;2023-10-09T08:50:39;100415.22;;;15.72;100.00
15529;BME280;7866;52.280;9.500;2023-10-09T08:55:43;100419.34;;;15.75;100.00
15529;BME280;7866;52.280;9.500;2023-10-09T09:00:47;100399.00;;;15.72;100.00
15529;BME280;7866;52.280;9.500;2023-10-09T09:05:58;100414.63;;;15.84;100.00
15529;BME280;7866;52.280;9.500;2023-10-09T09:11:03;100409.03;;;15.85;100.00
15529;BME280;7866;52.280;9.500;2023-10-09T09:16:18;100403.06;;;15.96;100.00
15529;BME280;7866;52.280;9.500;2023-10-09T09:21:20;100405.75;;;16.03;100.00
15529;BME280;7866;52.280;9.500;2023-10-09T09:26:36;100413.09;;;16.16;100.00
15529;BME280;7866;52.280;9.500;2023-10-09T09:31:56;100412.88;;;16.17;100.00
15529;BME280;7866;52.280;9.500;2023-10-09T09:37:06;100414.94;;;16.15;100.00
15529;BME280;7866;52.280;9.500;2023-10-09T09:42:14;100434.06;;;16.14;100.00
15529;BME280;7866;52.280;9.500;2023-10-09T09:47:19;100412.66;;;16.12;100.00
15529;BME280;7866;52.280;9.500;2023-10-09T09:52:29;100407.03;;;16.14;100.00
15529;BME280;7866;52.280;9.500;2023-10-09T09:57:38;100391.28;;;16.31;100.00
15529;BME280;7866;52.280;9.500;2023-10-09T10:02:42;100393.78;;;16.39;100.00
15529;BME280;7866;52.280;9.500;2023-10-09T10:07:45;100415.81;;;16.42;100.00
15529;BME280;7866;52.280;9.500;2023-10-09T10:12:50;100441.41;;;16.46;99.83
15529;BME280;7866;52.280;9.500;2023-10-09T10:18:09;100439.75;;;16.45;100.00
15529;BME280;7866;52.280;9.500;2023-10-09T10:23:19;100433.94;;;16.62;99.69
15529;BME280;7866;52.280;9.500;2023-10-09T10:28:27;100435.63;;;16.56;99.07
15529;BME280;7866;52.280;9.500;2023-10-09T10:34:04;100445.19;;;16.65;99.82
15529;BME280;7866;52.280;9.500;2023-10-09T10:39:11;100452.66;;;16.57;99.91
15529;BME280;7866;52.280;9.500;2023-10-09T10:44:28;100478.41;;;16.39;100.00
15529;BME280;7866;52.280;9.500;2023-10-09T10:49:43;100458.22;;;16.29;100.00
15529;BME280;7866;52.280;9.500;2023-10-09T10:54:45;100450.34;;;16.34;100.00
15529;BME280;7866;52.280;9.500;2023-10-09T11:00:10;100455.53;;;16.35;100.00
15529;BME280;7866;52.280;9.500;2023-10-09T11:05:36;100461.53;;;16.24;100.00
15529;BME280;7866;52.280;9.500;2023-10-09T11:10:40;100464.47;;;16.29;100.00
15529;BME280;7866;52.280;9.500;2023-10-09T11:15:50;100471.13;;;16.33;100.00
15529;BME280;7866;52.280;9.500;2023-10-09T11:21:16;100465.50;;;16.35;100.00
15529;BME280;7866;52.280;9.500;2023-10-09T11:26:32;100457.78;;;16.32;100.00
15529;BME280;7866;52.280;9.500;2023-10-09T11:31:41;100450.34;;;16.40;100.00
15529;BME280;7866;52.280;9.500;2023-10-09T11:36:47;100441.81;;;16.43;100.00
15529;BME280;7866;52.280;9.500;2023-10-09T11:42:00;100453.69;;;16.49;100.00
15529;BME280;7866;52.280;9.500;2023-10-09T11:47:05;100462.22;;;16.53;100.00
15529;BME280;7866;52.280;9.500;2023-10-09T11:52:24;100468.44;;;16.46;100.00
15529;BME280;7866;52.280;9.500;2023-10-09T11:57:38;100468.66;;;16.51;100.00
15529;BME280;7866;52.280;9.500;2023-10-09T12:02:40;100462.00;;;16.47;100.00
15529;BME280;7866;52.280;9.500;2023-10-09T12:07:46;100464.50;;;16.49;100.00
15529;BME280;7866;52.280;9.500;2023-10-09T12:12:54;100462.44;;;16.44;100.00
15529;BME280;7866;52.280;9.500;2023-10-09T12:17:58;100475.13;;;16.44;100.00
15529;BME280;7866;52.280;9.500;2023-10-09T12:23:02;100480.53;;;16.44;100.00
15529;BME280;7866;52.280;9.500;2023-10-09T12:28:06;100482.59;;;16.48;100.00
15529;BME280;7866;52.280;9.500;2023-10-09T12:33:12;100485.31;;;16.55;100.00
15529;BME280;7866;52.280;9.500;2023-10-09T12:38:16;100486.19;;;16.69;100.00
15529;BME280;7866;52.280;9.500;2023-10-09T12:43:23;100497.03;;;16.75;100.00
15529;BME280;7866;52.280;9.500;2023-10-09T12:48:29;100493.50;;;16.75;100.00
15529;BME280;7866;52.280;9.500;2023-10-09T12:53:33;100492.25;;;16.78;100.00
15529;BME280;7866;52.280;9.500;2023-10-09T12:58:35;100489.97;;;16.81;100.00
15529;BME280;7866;52.280;9.500;2023-10-09T13:03:37;100494.97;;;16.78;100.00
15529;BME280;7866;52.280;9.500;2023-10-09T13:08:41;100484.34;;;16.83;100.00
15529;BME280;7866;52.280;9.500;2023-10-09T13:13:46;100478.94;;;16.89;100.00
15529;BME280;7866;52.280;9.500;2023-10-09T13:18:51;100482.50;;;16.90;100.00
15529;BME280;7866;52.280;9.500;2023-10-09T13:23:54;100488.75;;;16.84;100.00
15529;BME280;7866;52.280;9.500;2023-10-09T13:28:58;100478.75;;;16.84;100.00
15529;BME280;7866;52.280;9.500;2023-10-09T13:34:00;100480.41;;;16.98;100.00
15529;BME280;7866;52.280;9.500;2023-10-09T13:39:06;100482.06;;;17.06;100.00
15529;BME280;7866;52.280;9.500;2023-10-09T13:44:24;100483.75;;;17.14;100.00
15529;BME280;7866;52.280;9.500;2023-10-09T13:49:27;100486.03;;;17.17;100.00
15529;BME280;7866;52.280;9.500;2023-10-09T13:54:32;100476.47;;;17.28;100.00
15529;BME280;7866;52.280;9.500;2023-10-09T13:59:41;100479.78;;;17.30;100.00
15529;BME280;7866;52.280;9.500;2023-10-09T14:04:49;100480.19;;;17.27;100.00
15529;BME280;7866;52.280;9.500;2023-10-09T14:09:53;100484.16;;;17.24;100.00
15529;BME280;7866;52.280;9.500;2023-10-09T14:15:08;100482.47;;;17.23;100.00
15529;BME280;7866;52.280;9.500;2023-10-09T14:20:11;100472.06;;;17.27;100.00
15529;BME280;7866;52.280;9.500;2023-10-09T14:25:30;100470.41;;;17.32;100.00
15529;BME280;7866;52.280;9.500;2023-10-09T14:30:32;100487.47;;;17.39;100.00
15529;BME280;7866;52.280;9.500;2023-10-09T14:35:43;100475.59;;;17.40;100.00
15529;BME280;7866;52.280;9.500;2023-10-09T14:40:47;100474.78;;;17.40;100.00
15529;BME280;7866;52.280;9.500;2023-10-09T14:45:49;100473.91;;;17.39;100.00
15529;BME280;7866;52.280;9.500;2023-10-09T14:50:54;100470.81;;;17.42;100.00
15529;BME280;7866;52.280;9.500;2023-10-09T14:56:06;100472.91;;;17.40;100.00
15529;BME280;7866;52.280;9.500;2023-10-09T15:01:09;100484.97;;;17.38;100.00
15529;BME280;7866;52.280;9.500;2023-10-09T15:06:13;100480.38;;;17.38;100.00
15529;BME280;7866;52.280;9.500;2023-10-09T15:11:15;100473.91;;;17.39;100.00
15529;BME280;7866;52.280;9.500;2023-10-09T15:16:17;100472.69;;;17.42;100.00
15529;BME280;7866;52.280;9.500;2023-10-09T15:21:21;100474.13;;;17.44;100.00
15529;BME280;7866;52.280;9.500;2023-10-09T15:26:28;100481.22;;;17.45;100.00
15529;BME280;7866;52.280;9.500;2023-10-09T15:31:33;100490.56;;;17.43;100.00
15529;BME280;7866;52.280;9.500;2023-10-09T15:36:35;100499.56;;;17.43;100.00
15529;BME280;7866;52.280;9.500;2023-10-09T15:41:39;100501.00;;;17.39;100.00
15529;BME280;7866;52.280;9.500;2023-10-09T15:46:41;100510.81;;;17.34;100.00
15529;BME280;7866;52.280;9.500;2023-10-09T15:51:45;100509.97;;;17.33;100.00
15529;BME280;7866;52.280;9.500;2023-10-09T15:56:48;100502.25;;;17.30;100.00
15529;BME280;7866;52.280;9.500;2023-10-09T16:01:50;100508.09;;;17.27;100.00
15529;BME280;7866;52.280;9.500;2023-10-09T16:06:53;100507.47;;;17.32;100.00
15529;BME280;7866;52.280;9.500;2023-10-09T16:11:57;100508.31;;;17.32;100.00
15529;BME280;7866;52.280;9.500;2023-10-09T16:16:58;100519.34;;;17.31;100.00
15529;BME280;7866;52.280;9.500;2023-10-09T16:22:02;100530.38;;;17.29;100.00
15529;BME280;7866;52.280;9.500;2023-10-09T16:27:05;100532.88;;;17.24;100.00
15529;BME280;7866;52.280;9.500;2023-10-09T16:32:07;100540.56;;;17.27;100.00
15529;BME280;7866;52.280;9.500;2023-10-09T16:37:11;100538.31;;;17.24;100.00
15529;BME280;7866;52.280;9.500;2023-10-09T16:42:15;100556.00;;;17.20;100.00
15529;BME280;7866;52.280;9.500;2023-10-09T16:47:17;100551.59;;;17.19;100.00
15529;BME280;7866;52.280;9.500;2023-10-09T16:52:19;100564.53;;;17.17;100.00
15529;BME280;7866;52.280;9.500;2023-10-09T16:57:24;100564.94;;;17.14;100.00
15529;BME280;7866;52.280;9.500;2023-10-09T17:02:26;100564.50;;;17.10;100.00
15529;BME280;7866;52.280;9.500;2023-10-09T17:07:30;100573.44;;;17.11;100.00
15529;BME280;7866;52.280;9.500;2023-10-09T17:12:36;100582.41;;;17.11;100.00
15529;BME280;7866;52.280;9.500;2023-10-09T17:17:39;100584.72;;;17.08;100.00
15529;BME280;7866;52.280;9.500;2023-10-09T17:22:43;100596.38;;;17.08;100.00
15529;BME280;7866;52.280;9.500;2023-10-09T17:27:48;100599.91;;;17.09;100.00
15529;BME280;7866;52.280;9.500;2023-10-09T17:32:49;100603.66;;;17.08;100.00
15529;BME280;7866;52.280;9.500;2023-10-09T17:37:51;100607.81;;;17.04;100.00
15529;BME280;7866;52.280;9.500;2023-10-09T17:42:54;100609.88;;;17.02;100.00
15529;BME280;7866;52.280;9.500;2023-10-09T17:47:56;100607.38;;;17.00;100.00
15529;BME280;7866;52.280;9.500;2023-10-09T17:52:59;100606.75;;;16.98;100.00
15529;BME280;7866;52.280;9.500;2023-10-09T17:58:06;100625.91;;;16.96;100.00
15529;BME280;7866;52.280;9.500;2023-10-09T18:03:08;100629.41;;;16.90;100.00
15529;BME280;7866;52.280;9.500;2023-10-09T18:08:11;100635.22;;;16.87;100.00
15529;BME280;7866;52.280;9.500;2023-10-09T18:13:16;100648.09;;;16.79;100.00
15529;BME280;7866;52.280;9.500;2023-10-09T18:18:18;100647.66;;;16.75;100.00
15529;BME280;7866;52.280;9.500;2023-10-09T18:23:20;100652.81;;;16.70;100.00
15529;BME280;7866;52.280;9.500;2023-10-09T18:28:23;100658.63;;;16.67;100.00
15529;BME280;7866;52.280;9.500;2023-10-09T18:33:25;100648.41;;;16.62;100.00
15529;BME280;7866;52.280;9.500;2023-10-09T18:38:27;100653.38;;;16.59;100.00
15529;BME280;7866;52.280;9.500;2023-10-09T18:43:30;100649.00;;;16.58;100.00
15529;BME280;7866;52.280;9.500;2023-10-09T18:48:31;100650.44;;;16.54;100.00
15529;BME280;7866;52.280;9.500;2023-10-09T18:53:33;100652.13;;;16.55;100.00
15529;BME280;7866;52.280;9.500;2023-10-09T18:58:36;100648.78;;;16.53;100.00
15529;BME280;7866;52.280;9.500;2023-10-09T19:03:38;100653.75;;;16.49;100.00
15529;BME280;7866;52.280;9.500;2023-10-09T19:08:39;100658.34;;;16.48;100.00
15529;BME280;7866;52.280;9.500;2023-10-09T19:13:42;100662.25;;;16.46;100.00
15529;BME280;7866;52.280;9.500;2023-10-09T19:18:44;100651.88;;;16.49;100.00
15529;BME280;7866;52.280;9.500;2023-10-09T19:23:46;100661.66;;;16.44;100.00
15529;BME280;7866;52.280;9.500;2023-10-09T19:28:49;100662.47;;;16.44;100.00
15529;BME280;7866;52.280;9.500;2023-10-09T19:33:50;100670.75;;;16.43;100.00
15529;BME280;7866;52.280;9.500;2023-10-09T19:38:52;100670.31;;;16.39;100.00
15529;BME280;7866;52.280;9.500;2023-10-09T19:43:55;100670.75;;;16.36;100.00
15529;BME280;7866;52.280;9.500;2023-10-09T19:48:57;100671.59;;;16.37;100.00
15529;BME280;7866;52.280;9.500;2023-10-09T19:53:58;100668.81;;;16.30;100.00
15529;BME280;7866;52.280;9.500;2023-10-09T19:59:01;100676.31;;;16.28;100.00
15529;BME280;7866;52.280;9.500;2023-10-09T20:04:03;100677.97;;;16.29;100.00
15529;BME280;7866;52.280;9.500;2023-10-09T20:09:05;100678.97;;;16.21;100.00
15529;BME280;7866;52.280;9.500;2023-10-09T20:14:14;100677.75;;;16.24;100.00
15529;BME280;7866;52.280;9.500;2023-10-09T20:19:18;100682.88;;;16.19;100.00
15529;BME280;7866;52.280;9.500;2023-10-09T20:24:20;100688.06;;;16.14;100.00
15529;BME280;7866;52.280;9.500;2023-10-09T20:29:26;100702.34;;;16.08;100.00
15529;BME280;7866;52.280;9.500;2023-10-09T20:34:28;100703.75;;;16.04;100.00
15529;BME280;7866;52.280;9.500;2023-10-09T20:39:31;100695.66;;;16.04;100.00
15529;BME280;7866;52.280;9.500;2023-10-09T20:44:34;100698.78;;;16.00;100.00
15529;BME280;7866;52.280;9.500;2023-10-09T20:49:36;100699.59;;;16.01;100.00
15529;BME280;7866;52.280;9.500;2023-10-09T20:54:37;100706.88;;;16.00;100.00
15529;BME280;7866;52.280;9.500;2023-10-09T20:59:40;100711.63;;;15.98;100.00
15529;BME280;7866;52.280;9.500;2023-10-09T21:04:43;100714.28;;;15.92;100.00
15529;BME280;7866;52.280;9.500;2023-10-09T21:09:44;100721.16;;;15.94;100.00
15529;BME280;7866;52.280;9.500;2023-10-09T21:14:49;100724.88;;;15.93;100.00
15529;BME280;7866;52.280;9.500;2023-10-09T21:19:51;100720.91;;;15.89;100.00
15529;BME280;7866;52.280;9.500;2023-10-09T21:24:54;100722.50;;;15.84;100.00
15529;BME280;7866;52.280;9.500;2023-10-09T21:29:57;100726.06;;;15.84;100.00
15529;BME280;7866;52.280;9.500;2023-10-09T21:34:59;100727.72;;;15.85;100.00
15529;BME280;7866;52.280;9.500;2023-10-09T21:40:01;100730.44;;;15.85;100.00
15529;BME280;7866;52.280;9.500;2023-10-09T21:45:10;100717.31;;;15.82;100.00
15529;BME280;7866;52.280;9.500;2023-10-09T21:50:12;100727.47;;;15.80;100.00
15529;BME280;7866;52.280;9.500;2023-10-09T21:55:13;100728.63;;;15.71;100.00
15529;BME280;7866;52.280;9.500;2023-10-09T22:00:18;100721.56;;;15.70;100.00
15529;BME280;7866;52.280;9.500;2023-10-09T22:05:31;100728.16;;;15.67;100.00
15529;BME280;7866;52.280;9.500;2023-10-09T22:10:33;100728.38;;;15.66;100.00
15529;BME280;7866;52.280;9.500;2023-10-09T22:15:36;100722.13;;;15.65;100.00
15529;BME280;7866;52.280;9.500;2023-10-09T22:20:38;100721.56;;;15.70;100.00
15529;BME280;7866;52.280;9.500;2023-10-09T22:25:47;100719.25;;;15.67;100.00
15529;BME280;7866;52.280;9.500;2023-10-09T22:31:02;100712.25;;;15.72;100.00
15529;BME280;7866;52.280;9.500;2023-10-09T22:36:06;100709.72;;;15.71;100.00
15529;BME280;7866;52.280;9.500;2023-10-09T22:41:10;100715.13;;;15.71;100.00
15529;BME280;7866;52.280;9.500;2023-10-09T22:46:21;100716.41;;;15.75;100.00
15529;BME280;7866;52.280;9.500;2023-10-09T22:51:23;100726.19;;;15.76;100.00
15529;BME280;7866;52.280;9.500;2023-10-09T22:56:27;100730.75;;;15.75;100.00
15529;BME280;7866;52.280;9.500;2023-10-09T23:01:31;100721.81;;;15.75;100.00
15529;BME280;7866;52.280;9.500;2023-10-09T23:06:33;100726.00;;;15.77;100.00
15529;BME280;7866;52.280;9.500;2023-10-09T23:11:35;100725.63;;;15.81;100.00
15529;BME280;7866;52.280;9.500;2023-10-09T23:16:39;100718.94;;;15.76;100.00
15529;BME280;7866;52.280;9.500;2023-10-09T23:21:53;100715.19;;;15.77;100.00
15529;BME280;7866;52.280;9.500;2023-10-09T23:27:08;100722.47;;;15.77;100.00
15529;BME280;7866;52.280;9.500;2023-10-09T23:32:27;100725.16;;;15.77;100.00
15529;BME280;7866;52.280;9.500;2023-10-09T23:37:32;100727.88;;;15.77;100.00
15529;BME280;7866;52.280;9.500;2023-10-09T23:42:43;100732.22;;;15.78;100.00
15529;BME280;7866;52.280;9.500;2023-10-09T23:47:58;100735.59;;;15.80;100.00
15529;BME280;7866;52.280;9.500;2023-10-09T23:53:00;100744.31;;;15.82;100.00
15529;BME280;7866;52.280;9.500;2023-10-09T23:58:02;100745.34;;;15.81;100.00
